sensor_id;sensor_type;location;lat;lon;timestamp;temperature;humidity
19880;DHT22;10102;50.828;4.416;2023-02-28T07:04:05;3.90;99.90
19880;DHT22;10102;50.828;4.416;2023-02-28T07:06:34;4.00;99.90
19880;DHT22;10102;50.828;4.416;2023-02-28T07:09:01;4.00;99.90
19880;DHT22;10102;50.828;4.416;2023-02-28T07:11:27;4.00;99.90
19880;DHT22;10102;50.828;4.416;2023-02-28T07:13:54;4.10;99.90
19880;DHT22;10102;50.828;4.416;2023-02-28T07:16:21;4.10;99.90
19880;DHT22;10102;50.828;4.416;2023-02-28T07:18:47;4.50;99.90
19880;DHT22;10102;50.828;4.416;2023-02-28T07:23:39;4.00;99.90
19880;DHT22;10102;50.828;4.416;2023-02-28T07:29:29;4.00;99.90
19880;DHT22;10102;50.828;4.416;2023-02-28T07:31:54;4.10;99.90
19880;DHT22;10102;50.828;4.416;2023-02-28T07:34:20;4.10;99.90
19880;DHT22;10102;50.828;4.416;2023-02-28T07:36:46;4.00;99.90
19880;DHT22;10102;50.828;4.416;2023-02-28T07:39:12;3.90;99.90
19880;DHT22;10102;50.828;4.416;2023-02-28T07:41:38;3.90;99.90
19880;DHT22;10102;50.828;4.416;2023-02-28T07:44:10;4.00;99.90
19880;DHT22;10102;50.828;4.416;2023-02-28T07:49:07;3.90;99.90
19880;DHT22;10102;50.828;4.416;2023-02-28T07:51:35;3.90;99.90
19880;DHT22;10102;50.828;4.416;2023-02-28T07:54:01;3.90;99.90
19880;DHT22;10102;50.828;4.416;2023-02-28T07:56:27;3.90;99.90
19880;DHT22;10102;50.828;4.416;2023-02-28T07:58:53;3.90;99.90
19880;DHT22;10102;50.828;4.416;2023-02-28T08:01:19;3.80;99.90
19880;DHT22;10102;50.828;4.416;2023-02-28T08:06:17;3.80;99.90
19880;DHT22;10102;50.828;4.416;2023-02-28T08:08:44;3.80;99.90
19880;DHT22;10102;50.828;4.416;2023-02-28T08:11:09;3.80;99.90
19880;DHT22;10102;50.828;4.416;2023-02-28T08:16:02;4.00;99.90
19880;DHT22;10102;50.828;4.416;2023-02-28T08:18:28;3.90;99.90
19880;DHT22;10102;50.828;4.416;2023-02-28T08:23:19;3.90;99.90
19880;DHT22;10102;50.828;4.416;2023-02-28T08:25:53;3.90;99.90
19880;DHT22;10102;50.828;4.416;2023-02-28T08:30:45;4.00;99.90
19880;DHT22;10102;50.828;4.416;2023-02-28T08:35:36;4.00;99.90
19880;DHT22;10102;50.828;4.416;2023-02-28T08:38:02;4.00;99.90
19880;DHT22;10102;50.828;4.416;2023-02-28T08:40:28;4.10;99.90
19880;DHT22;10102;50.828;4.416;2023-02-28T08:42:54;4.00;99.90
19880;DHT22;10102;50.828;4.416;2023-02-28T08:45:19;4.10;99.90
19880;DHT22;10102;50.828;4.416;2023-02-28T08:47:46;4.10;99.90
19880;DHT22;10102;50.828;4.416;2023-02-28T08:50:11;4.20;99.90
19880;DHT22;10102;50.828;4.416;2023-02-28T08:52:42;4.30;99.90
19880;DHT22;10102;50.828;4.416;2023-02-28T08:55:09;4.30;99.90
19880;DHT22;10102;50.828;4.416;2023-02-28T09:00:02;4.50;99.90
19880;DHT22;10102;50.828;4.416;2023-02-28T09:02:30;4.50;99.90
19880;DHT22;10102;50.828;4.416;2023-02-28T09:04:56;4.50;99.90
19880;DHT22;10102;50.828;4.416;2023-02-28T09:07:22;4.40;99.90
19880;DHT22;10102;50.828;4.416;2023-02-28T09:09:48;4.50;99.90
19880;DHT22;10102;50.828;4.416;2023-02-28T09:12:21;4.60;99.90
19880;DHT22;10102;50.828;4.416;2023-02-28T09:14:47;4.70;99.90
19880;DHT22;10102;50.828;4.416;2023-02-28T09:17:12;4.80;99.90
19880;DHT22;10102;50.828;4.416;2023-02-28T09:19:38;5.00;99.90
19880;DHT22;10102;50.828;4.416;2023-02-28T09:24:30;5.20;99.90
19880;DHT22;10102;50.828;4.416;2023-02-28T09:26:57;5.20;99.90
19880;DHT22;10102;50.828;4.416;2023-02-28T09:29:22;5.20;99.90
19880;DHT22;10102;50.828;4.416;2023-02-28T09:31:48;5.30;99.90
19880;DHT22;10102;50.828;4.416;2023-02-28T09:34:14;5.20;99.90
19880;DHT22;10102;50.828;4.416;2023-02-28T09:36:39;5.00;99.90
19880;DHT22;10102;50.828;4.416;2023-02-28T09:39:05;5.10;99.90
19880;DHT22;10102;50.828;4.416;2023-02-28T09:41:41;4.80;99.90
19880;DHT22;10102;50.828;4.416;2023-02-28T09:44:35;4.70;99.90
19880;DHT22;10102;50.828;4.416;2023-02-28T09:47:27;4.70;99.90
19880;DHT22;10102;50.828;4.416;2023-02-28T09:49:57;4.80;99.90
19880;DHT22;10102;50.828;4.416;2023-02-28T09:52:33;4.90;99.90
19880;DHT22;10102;50.828;4.416;2023-02-28T09:57:41;5.00;99.90
19880;DHT22;10102;50.828;4.416;2023-02-28T10:00:18;5.30;99.90
19880;DHT22;10102;50.828;4.416;2023-02-28T10:06:18;5.50;99.90
19880;DHT22;10102;50.828;4.416;2023-02-28T10:09:04;5.80;99.90
19880;DHT22;10102;50.828;4.416;2023-02-28T10:11:33;6.10;99.90
19880;DHT22;10102;50.828;4.416;2023-02-28T10:14:22;6.10;99.90
19880;DHT22;10102;50.828;4.416;2023-02-28T10:16:56;6.40;99.90
19880;DHT22;10102;50.828;4.416;2023-02-28T10:24:49;7.20;99.90
19880;DHT22;10102;50.828;4.416;2023-02-28T10:27:25;7.50;99.90
19880;DHT22;10102;50.828;4.416;2023-02-28T10:29:53;7.60;99.90
19880;DHT22;10102;50.828;4.416;2023-02-28T10:32:24;7.70;99.90
19880;DHT22;10102;50.828;4.416;2023-02-28T10:37:27;8.50;99.90
19880;DHT22;10102;50.828;4.416;2023-02-28T10:39:53;8.90;99.90
19880;DHT22;10102;50.828;4.416;2023-02-28T10:42:25;9.40;99.90
19880;DHT22;10102;50.828;4.416;2023-02-28T10:45:13;9.90;99.90
19880;DHT22;10102;50.828;4.416;2023-02-28T10:47:59;10.10;99.90
19880;DHT22;10102;50.828;4.416;2023-02-28T10:50:50;11.50;99.90
19880;DHT22;10102;50.828;4.416;2023-02-28T11:01:35;17.90;82.60
19880;DHT22;10102;50.828;4.416;2023-02-28T11:04:01;19.00;73.40
19880;DHT22;10102;50.828;4.416;2023-02-28T11:06:33;20.00;69.20
19880;DHT22;10102;50.828;4.416;2023-02-28T11:09:04;20.70;68.40
19880;DHT22;10102;50.828;4.416;2023-02-28T11:11:43;21.40;65.20
19880;DHT22;10102;50.828;4.416;2023-02-28T11:14:38;21.20;62.30
19880;DHT22;10102;50.828;4.416;2023-02-28T11:17:28;20.20;63.60
19880;DHT22;10102;50.828;4.416;2023-02-28T11:20:06;19.30;64.00
19880;DHT22;10102;50.828;4.416;2023-02-28T11:22:37;19.00;64.90
19880;DHT22;10102;50.828;4.416;2023-02-28T11:27:53;21.30;59.80
19880;DHT22;10102;50.828;4.416;2023-02-28T11:32:53;22.70;57.10
19880;DHT22;10102;50.828;4.416;2023-02-28T11:35:36;22.30;55.70
19880;DHT22;10102;50.828;4.416;2023-02-28T11:38:07;22.10;55.40
19880;DHT22;10102;50.828;4.416;2023-02-28T11:51:28;24.80;51.80
19880;DHT22;10102;50.828;4.416;2023-02-28T11:56:55;23.00;53.50
19880;DHT22;10102;50.828;4.416;2023-02-28T12:02:36;24.60;50.50
19880;DHT22;10102;50.828;4.416;2023-02-28T12:10:39;29.10;46.70
19880;DHT22;10102;50.828;4.416;2023-02-28T12:13:54;29.20;46.00
19880;DHT22;10102;50.828;4.416;2023-02-28T12:16:39;28.90;45.00
19880;DHT22;10102;50.828;4.416;2023-02-28T12:19:26;29.70;43.70
19880;DHT22;10102;50.828;4.416;2023-02-28T12:27:42;29.00;42.90
19880;DHT22;10102;50.828;4.416;2023-02-28T12:30:28;29.10;41.90
19880;DHT22;10102;50.828;4.416;2023-02-28T12:33:19;29.00;42.40
19880;DHT22;10102;50.828;4.416;2023-02-28T12:35:55;30.10;42.00
19880;DHT22;10102;50.828;4.416;2023-02-28T12:38:26;28.80;40.40
19880;DHT22;10102;50.828;4.416;2023-02-28T12:41:14;27.70;42.10
19880;DHT22;10102;50.828;4.416;2023-02-28T12:43:46;27.10;42.00
19880;DHT22;10102;50.828;4.416;2023-02-28T12:48:48;28.20;42.40
19880;DHT22;10102;50.828;4.416;2023-02-28T12:51:17;29.70;41.30
19880;DHT22;10102;50.828;4.416;2023-02-28T12:54:16;29.90;41.00
19880;DHT22;10102;50.828;4.416;2023-02-28T12:56:49;29.90;40.80
19880;DHT22;10102;50.828;4.416;2023-02-28T12:59:32;29.80;40.60
19880;DHT22;10102;50.828;4.416;2023-02-28T13:09:58;28.90;40.10
19880;DHT22;10102;50.828;4.416;2023-02-28T13:12:25;29.30;40.40
19880;DHT22;10102;50.828;4.416;2023-02-28T13:17:30;25.80;42.40
19880;DHT22;10102;50.828;4.416;2023-02-28T13:20:00;22.40;45.10
19880;DHT22;10102;50.828;4.416;2023-02-28T13:24:56;17.90;51.30
19880;DHT22;10102;50.828;4.416;2023-02-28T13:27:37;16.00;55.30
19880;DHT22;10102;50.828;4.416;2023-02-28T13:35:46;12.00;79.50
19880;DHT22;10102;50.828;4.416;2023-02-28T13:38:17;11.60;83.20
19880;DHT22;10102;50.828;4.416;2023-02-28T13:40:43;11.00;85.60
19880;DHT22;10102;50.828;4.416;2023-02-28T13:45:35;10.60;84.60
19880;DHT22;10102;50.828;4.416;2023-02-28T13:48:18;10.40;86.20
19880;DHT22;10102;50.828;4.416;2023-02-28T13:50:44;10.30;86.80
19880;DHT22;10102;50.828;4.416;2023-02-28T13:53:21;9.80;87.80
19880;DHT22;10102;50.828;4.416;2023-02-28T13:59:16;9.40;91.00
19880;DHT22;10102;50.828;4.416;2023-02-28T14:01:56;9.20;80.40
19880;DHT22;10102;50.828;4.416;2023-02-28T14:04:53;9.60;75.40
19880;DHT22;10102;50.828;4.416;2023-02-28T14:07:29;9.40;90.50
19880;DHT22;10102;50.828;4.416;2023-02-28T14:09:59;9.20;81.50
19880;DHT22;10102;50.828;4.416;2023-02-28T14:12:53;9.10;90.40
19880;DHT22;10102;50.828;4.416;2023-02-28T14:21:31;9.10;90.60
19880;DHT22;10102;50.828;4.416;2023-02-28T14:32:27;8.70;92.40
19880;DHT22;10102;50.828;4.416;2023-02-28T14:35:01;8.80;83.40
19880;DHT22;10102;50.828;4.416;2023-02-28T14:37:32;8.80;83.20
19880;DHT22;10102;50.828;4.416;2023-02-28T14:39:59;8.50;75.50
19880;DHT22;10102;50.828;4.416;2023-02-28T14:42:36;9.90;79.60
19880;DHT22;10102;50.828;4.416;2023-02-28T14:45:20;8.80;92.30
19880;DHT22;10102;50.828;4.416;2023-02-28T14:47:46;8.70;79.40
19880;DHT22;10102;50.828;4.416;2023-02-28T14:50:31;8.70;74.70
19880;DHT22;10102;50.828;4.416;2023-02-28T14:52:58;8.70;92.10
19880;DHT22;10102;50.828;4.416;2023-02-28T14:55:30;8.80;92.00
19880;DHT22;10102;50.828;4.416;2023-02-28T14:58:06;8.60;92.40
19880;DHT22;10102;50.828;4.416;2023-02-28T15:00:37;8.40;92.50
19880;DHT22;10102;50.828;4.416;2023-02-28T15:03:24;8.50;81.20
19880;DHT22;10102;50.828;4.416;2023-02-28T15:05:58;8.30;92.60
19880;DHT22;10102;50.828;4.416;2023-02-28T15:08:25;8.50;92.80
19880;DHT22;10102;50.828;4.416;2023-02-28T15:10:55;8.40;92.10
19880;DHT22;10102;50.828;4.416;2023-02-28T15:13:23;8.50;93.10
19880;DHT22;10102;50.828;4.416;2023-02-28T15:15:56;8.40;92.80
19880;DHT22;10102;50.828;4.416;2023-02-28T15:18:35;8.60;93.10
19880;DHT22;10102;50.828;4.416;2023-02-28T15:21:08;8.40;82.20
19880;DHT22;10102;50.828;4.416;2023-02-28T15:23:36;8.40;93.50
19880;DHT22;10102;50.828;4.416;2023-02-28T15:26:03;8.30;82.90
19880;DHT22;10102;50.828;4.416;2023-02-28T15:28:29;8.30;93.50
19880;DHT22;10102;50.828;4.416;2023-02-28T15:30:58;8.20;81.20
19880;DHT22;10102;50.828;4.416;2023-02-28T15:33:32;8.30;94.80
19880;DHT22;10102;50.828;4.416;2023-02-28T15:36:06;8.30;93.40
19880;DHT22;10102;50.828;4.416;2023-02-28T15:38:34;8.30;94.00
19880;DHT22;10102;50.828;4.416;2023-02-28T15:41:00;8.40;94.90
19880;DHT22;10102;50.828;4.416;2023-02-28T15:43:29;8.40;93.90
19880;DHT22;10102;50.828;4.416;2023-02-28T15:45:58;8.50;78.40
19880;DHT22;10102;50.828;4.416;2023-02-28T15:48:51;8.60;86.90
19880;DHT22;10102;50.828;4.416;2023-02-28T15:51:20;8.40;94.10
19880;DHT22;10102;50.828;4.416;2023-02-28T15:53:54;8.00;94.20
19880;DHT22;10102;50.828;4.416;2023-02-28T15:58:47;8.30;94.30
19880;DHT22;10102;50.828;4.416;2023-02-28T16:03:47;8.40;88.30
19880;DHT22;10102;50.828;4.416;2023-02-28T16:08:42;8.40;95.70
19880;DHT22;10102;50.828;4.416;2023-02-28T16:11:11;8.40;94.70
19880;DHT22;10102;50.828;4.416;2023-02-28T16:13:37;8.80;95.00
19880;DHT22;10102;50.828;4.416;2023-02-28T16:16:03;8.30;90.80
19880;DHT22;10102;50.828;4.416;2023-02-28T16:18:29;8.20;94.50
19880;DHT22;10102;50.828;4.416;2023-02-28T16:20:54;8.20;94.80
19880;DHT22;10102;50.828;4.416;2023-02-28T16:23:20;8.50;95.00
19880;DHT22;10102;50.828;4.416;2023-02-28T16:25:46;8.10;95.30
19880;DHT22;10102;50.828;4.416;2023-02-28T16:28:30;7.90;82.30
19880;DHT22;10102;50.828;4.416;2023-02-28T16:30:59;7.90;95.70
19880;DHT22;10102;50.828;4.416;2023-02-28T16:33:25;7.80;96.60
19880;DHT22;10102;50.828;4.416;2023-02-28T16:35:51;7.60;95.80
19880;DHT22;10102;50.828;4.416;2023-02-28T16:38:17;7.40;96.10
19880;DHT22;10102;50.828;4.416;2023-02-28T16:40:43;7.70;96.30
19880;DHT22;10102;50.828;4.416;2023-02-28T16:43:18;7.60;96.90
19880;DHT22;10102;50.828;4.416;2023-02-28T16:45:47;7.60;96.60
19880;DHT22;10102;50.828;4.416;2023-02-28T16:48:15;7.50;95.20
19880;DHT22;10102;50.828;4.416;2023-02-28T16:50:42;7.80;92.10
19880;DHT22;10102;50.828;4.416;2023-02-28T16:53:10;7.50;96.90
19880;DHT22;10102;50.828;4.416;2023-02-28T16:55:36;7.40;97.20
19880;DHT22;10102;50.828;4.416;2023-02-28T16:58:03;7.40;97.40
19880;DHT22;10102;50.828;4.416;2023-02-28T17:00:31;7.30;97.40
19880;DHT22;10102;50.828;4.416;2023-02-28T17:02:57;7.10;98.80
19880;DHT22;10102;50.828;4.416;2023-02-28T17:05:25;7.30;99.00
19880;DHT22;10102;50.828;4.416;2023-02-28T17:07:52;7.20;98.10
19880;DHT22;10102;50.828;4.416;2023-02-28T17:10:21;7.20;98.30
19880;DHT22;10102;50.828;4.416;2023-02-28T17:12:47;7.20;98.50
19880;DHT22;10102;50.828;4.416;2023-02-28T17:15:14;7.20;98.20
19880;DHT22;10102;50.828;4.416;2023-02-28T17:17:41;7.30;97.80
19880;DHT22;10102;50.828;4.416;2023-02-28T17:20:15;7.20;97.90
19880;DHT22;10102;50.828;4.416;2023-02-28T17:22:41;7.10;98.00
19880;DHT22;10102;50.828;4.416;2023-02-28T17:25:08;7.00;90.70
19880;DHT22;10102;50.828;4.416;2023-02-28T17:27:35;7.10;91.90
19880;DHT22;10102;50.828;4.416;2023-02-28T17:30:00;6.90;98.30
19880;DHT22;10102;50.828;4.416;2023-02-28T17:32:26;7.10;90.70
19880;DHT22;10102;50.828;4.416;2023-02-28T17:34:53;6.90;99.20
19880;DHT22;10102;50.828;4.416;2023-02-28T17:37:19;6.80;99.10
19880;DHT22;10102;50.828;4.416;2023-02-28T17:42:11;6.80;99.10
19880;DHT22;10102;50.828;4.416;2023-02-28T17:44:37;6.70;99.70
19880;DHT22;10102;50.828;4.416;2023-02-28T17:47:03;6.90;92.30
19880;DHT22;10102;50.828;4.416;2023-02-28T17:49:29;6.80;99.80
19880;DHT22;10102;50.828;4.416;2023-02-28T17:51:54;6.80;93.80
19880;DHT22;10102;50.828;4.416;2023-02-28T17:54:20;6.80;99.80
19880;DHT22;10102;50.828;4.416;2023-02-28T17:56:46;7.40;92.60
19880;DHT22;10102;50.828;4.416;2023-02-28T17:59:12;6.90;99.90
19880;DHT22;10102;50.828;4.416;2023-02-28T18:01:38;7.60;93.30
19880;DHT22;10102;50.828;4.416;2023-02-28T18:04:04;6.60;99.90
19880;DHT22;10102;50.828;4.416;2023-02-28T18:06:34;6.70;99.90
19880;DHT22;10102;50.828;4.416;2023-02-28T18:09:00;6.60;99.90
19880;DHT22;10102;50.828;4.416;2023-02-28T18:11:26;6.50;99.90
19880;DHT22;10102;50.828;4.416;2023-02-28T18:14:07;6.60;99.90
19880;DHT22;10102;50.828;4.416;2023-02-28T18:16:33;6.60;99.90
19880;DHT22;10102;50.828;4.416;2023-02-28T18:18:59;6.60;99.90
19880;DHT22;10102;50.828;4.416;2023-02-28T18:23:53;7.00;99.90
19880;DHT22;10102;50.828;4.416;2023-02-28T18:26:19;6.50;99.90
19880;DHT22;10102;50.828;4.416;2023-02-28T18:28:46;6.40;99.90
19880;DHT22;10102;50.828;4.416;2023-02-28T18:31:14;6.40;99.90
19880;DHT22;10102;50.828;4.416;2023-02-28T18:33:46;6.30;99.90
19880;DHT22;10102;50.828;4.416;2023-02-28T18:36:12;6.30;99.90
19880;DHT22;10102;50.828;4.416;2023-02-28T18:38:38;6.20;99.90
19880;DHT22;10102;50.828;4.416;2023-02-28T18:41:05;6.10;99.90
19880;DHT22;10102;50.828;4.416;2023-02-28T18:43:33;6.10;99.90
19880;DHT22;10102;50.828;4.416;2023-02-28T18:46:10;6.20;99.90
19880;DHT22;10102;50.828;4.416;2023-02-28T18:48:36;6.10;99.90
19880;DHT22;10102;50.828;4.416;2023-02-28T18:53:37;6.10;99.90
19880;DHT22;10102;50.828;4.416;2023-02-28T18:56:04;6.00;99.90
19880;DHT22;10102;50.828;4.416;2023-02-28T18:58:30;5.80;99.90
19880;DHT22;10102;50.828;4.416;2023-02-28T19:00:58;6.10;99.90
19880;DHT22;10102;50.828;4.416;2023-02-28T19:03:24;6.10;99.90
19880;DHT22;10102;50.828;4.416;2023-02-28T19:05:58;6.10;99.90
19880;DHT22;10102;50.828;4.416;2023-02-28T19:08:24;6.10;99.90
19880;DHT22;10102;50.828;4.416;2023-02-28T19:10:50;6.00;99.90
19880;DHT22;10102;50.828;4.416;2023-02-28T19:13:16;6.10;99.90
19880;DHT22;10102;50.828;4.416;2023-02-28T19:15:43;6.00;99.90
19880;DHT22;10102;50.828;4.416;2023-02-28T19:18:08;6.00;99.90
19880;DHT22;10102;50.828;4.416;2023-02-28T19:20:35;5.80;99.90
19880;DHT22;10102;50.828;4.416;2023-02-28T19:23:01;5.70;99.90
19880;DHT22;10102;50.828;4.416;2023-02-28T19:25:26;5.70;99.90
19880;DHT22;10102;50.828;4.416;2023-02-28T19:27:53;5.60;99.90
19880;DHT22;10102;50.828;4.416;2023-02-28T19:30:20;5.70;99.90
19880;DHT22;10102;50.828;4.416;2023-02-28T19:32:46;5.70;99.90
19880;DHT22;10102;50.828;4.416;2023-02-28T19:35:13;5.70;99.90
19880;DHT22;10102;50.828;4.416;2023-02-28T19:37:39;5.60;99.90
19880;DHT22;10102;50.828;4.416;2023-02-28T19:40:09;5.50;99.90
19880;DHT22;10102;50.828;4.416;2023-02-28T19:42:35;5.50;99.90
19880;DHT22;10102;50.828;4.416;2023-02-28T19:45:02;5.60;99.90
19880;DHT22;10102;50.828;4.416;2023-02-28T19:47:27;5.40;99.90
19880;DHT22;10102;50.828;4.416;2023-02-28T19:49:55;5.40;99.90
19880;DHT22;10102;50.828;4.416;2023-02-28T19:52:23;5.40;99.20
19880;DHT22;10102;50.828;4.416;2023-02-28T19:54:49;5.40;99.90
19880;DHT22;10102;50.828;4.416;2023-02-28T19:57:14;5.60;99.90
19880;DHT22;10102;50.828;4.416;2023-02-28T19:59:40;5.60;99.90
19880;DHT22;10102;50.828;4.416;2023-02-28T20:02:12;5.60;99.90
19880;DHT22;10102;50.828;4.416;2023-02-28T20:04:38;5.50;99.90
19880;DHT22;10102;50.828;4.416;2023-02-28T20:09:30;5.10;99.90
19880;DHT22;10102;50.828;4.416;2023-02-28T20:11:56;5.30;99.90
19880;DHT22;10102;50.828;4.416;2023-02-28T20:14:24;5.40;99.90
19880;DHT22;10102;50.828;4.416;2023-02-28T20:16:50;5.30;99.90
19880;DHT22;10102;50.828;4.416;2023-02-28T20:19:16;5.20;99.90
19880;DHT22;10102;50.828;4.416;2023-02-28T20:21:43;5.10;99.90
19880;DHT22;10102;50.828;4.416;2023-02-28T20:24:09;5.20;99.90
19880;DHT22;10102;50.828;4.416;2023-02-28T20:26:36;6.70;99.90
19880;DHT22;10102;50.828;4.416;2023-02-28T20:29:03;5.30;99.90
19880;DHT22;10102;50.828;4.416;2023-02-28T20:31:28;5.30;99.90
19880;DHT22;10102;50.828;4.416;2023-02-28T20:33:55;5.20;99.90
19880;DHT22;10102;50.828;4.416;2023-02-28T20:38:49;5.30;99.90
19880;DHT22;10102;50.828;4.416;2023-02-28T20:41:15;5.10;99.90
19880;DHT22;10102;50.828;4.416;2023-02-28T20:46:07;5.10;99.90
19880;DHT22;10102;50.828;4.416;2023-02-28T20:48:34;5.10;99.90
19880;DHT22;10102;50.828;4.416;2023-02-28T20:51:03;5.10;99.90
19880;DHT22;10102;50.828;4.416;2023-02-28T20:53:30;5.20;99.90
19880;DHT22;10102;50.828;4.416;2023-02-28T20:58:29;5.20;99.90
19880;DHT22;10102;50.828;4.416;2023-02-28T21:01:06;5.20;99.90
19880;DHT22;10102;50.828;4.416;2023-02-28T21:03:48;5.20;99.90
19880;DHT22;10102;50.828;4.416;2023-02-28T21:06:18;5.10;99.90
19880;DHT22;10102;50.828;4.416;2023-02-28T21:11:13;5.10;99.90
19880;DHT22;10102;50.828;4.416;2023-02-28T21:13:40;5.10;99.90
19880;DHT22;10102;50.828;4.416;2023-02-28T21:16:09;5.10;99.90
19880;DHT22;10102;50.828;4.416;2023-02-28T21:18:36;5.00;99.90
19880;DHT22;10102;50.828;4.416;2023-02-28T21:21:07;4.90;99.90
19880;DHT22;10102;50.828;4.416;2023-02-28T21:23:33;4.90;99.90
19880;DHT22;10102;50.828;4.416;2023-02-28T21:26:06;4.80;99.90
19880;DHT22;10102;50.828;4.416;2023-02-28T21:28:32;4.80;99.90
19880;DHT22;10102;50.828;4.416;2023-02-28T21:31:07;4.70;99.90
19880;DHT22;10102;50.828;4.416;2023-02-28T21:33:33;4.70;99.90
19880;DHT22;10102;50.828;4.416;2023-02-28T21:36:16;4.70;99.90
19880;DHT22;10102;50.828;4.416;2023-02-28T21:38:43;4.80;99.90
19880;DHT22;10102;50.828;4.416;2023-02-28T21:41:15;4.80;99.90
19880;DHT22;10102;50.828;4.416;2023-02-28T21:43:42;4.80;99.90
19880;DHT22;10102;50.828;4.416;2023-02-28T21:46:10;4.60;99.90
19880;DHT22;10102;50.828;4.416;2023-02-28T21:48:36;4.60;99.90
19880;DHT22;10102;50.828;4.416;2023-02-28T21:51:05;4.50;99.90
19880;DHT22;10102;50.828;4.416;2023-02-28T21:53:32;4.40;99.90
19880;DHT22;10102;50.828;4.416;2023-02-28T21:56:12;4.50;99.90
19880;DHT22;10102;50.828;4.416;2023-02-28T21:58:39;4.50;99.90
19880;DHT22;10102;50.828;4.416;2023-02-28T22:01:10;4.60;99.90
19880;DHT22;10102;50.828;4.416;2023-02-28T22:03:36;4.40;99.90
19880;DHT22;10102;50.828;4.416;2023-02-28T22:06:23;4.50;99.90
19880;DHT22;10102;50.828;4.416;2023-02-28T22:08:52;4.40;99.90
19880;DHT22;10102;50.828;4.416;2023-02-28T22:11:20;4.40;99.90
19880;DHT22;10102;50.828;4.416;2023-02-28T22:13:46;4.40;99.90
19880;DHT22;10102;50.828;4.416;2023-02-28T22:16:14;4.40;99.90
19880;DHT22;10102;50.828;4.416;2023-02-28T22:18:40;4.50;99.90
19880;DHT22;10102;50.828;4.416;2023-02-28T22:21:07;4.40;99.90
19880;DHT22;10102;50.828;4.416;2023-02-28T22:23:34;4.50;99.90
19880;DHT22;10102;50.828;4.416;2023-02-28T22:26:01;4.50;99.90
19880;DHT22;10102;50.828;4.416;2023-02-28T22:28:28;4.50;99.90
19880;DHT22;10102;50.828;4.416;2023-02-28T22:30:55;4.30;99.90
19880;DHT22;10102;50.828;4.416;2023-02-28T22:33:21;4.30;99.90
19880;DHT22;10102;50.828;4.416;2023-02-28T22:35:48;4.40;99.90
19880;DHT22;10102;50.828;4.416;2023-02-28T22:40:39;4.00;99.90
19880;DHT22;10102;50.828;4.416;2023-02-28T22:43:06;4.10;99.90
19880;DHT22;10102;50.828;4.416;2023-02-28T22:45:35;4.00;99.90
19880;DHT22;10102;50.828;4.416;2023-02-28T22:48:05;3.90;99.90
19880;DHT22;10102;50.828;4.416;2023-02-28T22:50:31;4.00;99.90
19880;DHT22;10102;50.828;4.416;2023-02-28T22:55:23;4.00;99.90
19880;DHT22;10102;50.828;4.416;2023-02-28T22:57:49;3.90;99.90
19880;DHT22;10102;50.828;4.416;2023-02-28T23:00:15;3.90;99.90
19880;DHT22;10102;50.828;4.416;2023-02-28T23:02:44;4.00;99.90
19880;DHT22;10102;50.828;4.416;2023-02-28T23:05:11;4.00;99.90
19880;DHT22;10102;50.828;4.416;2023-02-28T23:07:38;3.90;99.90
19880;DHT22;10102;50.828;4.416;2023-02-28T23:10:07;3.90;99.90
19880;DHT22;10102;50.828;4.416;2023-02-28T23:12:33;3.90;99.90
19880;DHT22;10102;50.828;4.416;2023-02-28T23:14:59;4.00;99.90
19880;DHT22;10102;50.828;4.416;2023-02-28T23:17:24;4.00;99.90
19880;DHT22;10102;50.828;4.416;2023-02-28T23:19:50;4.00;99.90
19880;DHT22;10102;50.828;4.416;2023-02-28T23:24:42;4.20;99.90
19880;DHT22;10102;50.828;4.416;2023-02-28T23:29:34;2.60;99.90
19880;DHT22;10102;50.828;4.416;2023-02-28T23:31:59;4.10;99.90
19880;DHT22;10102;50.828;4.416;2023-02-28T23:34:26;4.10;99.90
19880;DHT22;10102;50.828;4.416;2023-02-28T23:36:54;4.00;99.90
19880;DHT22;10102;50.828;4.416;2023-02-28T23:39:20;4.00;99.90
19880;DHT22;10102;50.828;4.416;2023-02-28T23:41:46;4.00;99.90
19880;DHT22;10102;50.828;4.416;2023-02-28T23:44:12;4.00;99.90
19880;DHT22;10102;50.828;4.416;2023-02-28T23:46:43;4.00;99.90
19880;DHT22;10102;50.828;4.416;2023-02-28T23:51:35;3.90;99.90
19880;DHT22;10102;50.828;4.416;2023-02-28T23:54:01;3.80;99.90
19880;DHT22;10102;50.828;4.416;2023-02-28T23:58:56;3.90;99.90
